Time;durP1;ratioP1;P1;durP2;ratioP2;P2;SDS_P1;SDS_P2;PMS_P1;PMS_P2;Temp;Humidity;BMP_temperature;BMP_pressure;BME280_temperature;BME280_humidity;BME280_pressure;Samples;Min_cycle;Max_cycle;Signal;HPM_P1;HPM_P2
2022/01/01 00:00:10;;;;;;;185.38;101.70;;;10.40;99.90;;;;;;4971734;28;20050;-58
2022/01/01 00:02:36;;;;;;;224.88;117.20;;;10.30;99.90;;;;;;4975269;28;20444;-58
2022/01/01 00:05:03;;;;;;;231.80;127.95;;;10.30;99.90;;;;;;4972314;28;20043;-59
2022/01/01 00:07:28;;;;;;;242.98;133.57;;;10.30;99.90;;;;;;4974944;28;20490;-58
2022/01/01 00:09:54;;;;;;;266.98;144.85;;;10.30;99.90;;;;;;4975672;28;20047;-58
2022/01/01 00:12:20;;;;;;;270.83;149.98;;;10.30;99.90;;;;;;4975855;28;20443;-58
2022/01/01 00:14:45;;;;;;;256.27;144.77;;;10.20;99.90;;;;;;4975634;28;20030;-58
2022/01/01 00:17:11;;;;;;;259.92;143.45;;;10.20;99.90;;;;;;4975754;28;20050;-58
2022/01/01 00:19:38;;;;;;;251.05;137.65;;;10.30;99.90;;;;;;4975644;28;20042;-58
2022/01/01 00:22:06;;;;;;;239.55;131.40;;;10.20;99.90;;;;;;4975720;28;20054;-58
2022/01/01 00:24:33;;;;;;;226.10;119.85;;;10.10;99.90;;;;;;4975572;28;20062;-58
2022/01/01 00:26:59;;;;;;;208.05;112.00;;;10.10;99.90;;;;;;4975543;28;20125;-58
2022/01/01 00:29:25;;;;;;;209.48;106.95;;;10.00;99.90;;;;;;4974980;28;20572;-58
2022/01/01 00:31:51;;;;;;;181.00;96.18;;;10.00;99.90;;;;;;4975509;28;20038;-58
2022/01/01 00:34:17;;;;;;;167.23;85.45;;;10.00;99.90;;;;;;4975388;28;20182;-57
2022/01/01 00:36:42;;;;;;;143.63;71.53;;;10.00;99.90;;;;;;4975036;28;20046;-58
2022/01/01 00:39:08;;;;;;;143.68;66.63;;;10.00;99.90;;;;;;4975347;28;20125;-58
2022/01/01 00:41:33;;;;;;;117.95;58.95;;;9.90;99.90;;;;;;4957720;28;20130;-58
2022/01/01 00:43:59;;;;;;;131.50;55.88;;;10.00;99.90;;;;;;4975090;28;20059;-58
2022/01/01 00:46:25;;;;;;;131.95;57.28;;;9.90;99.90;;;;;;4977776;28;20062;-58
2022/01/01 00:48:53;;;;;;;120.65;52.47;;;10.00;99.90;;;;;;4976283;28;20038;-58
2022/01/01 00:51:22;;;;;;;130.63;54.33;;;10.00;99.90;;;;;;4974650;28;20050;-58
2022/01/01 00:53:50;;;;;;;117.35;50.38;;;10.00;99.90;;;;;;4974854;28;20045;-58
2022/01/01 00:56:16;;;;;;;117.72;51.28;;;10.00;99.90;;;;;;4992751;28;20118;-58
2022/01/01 00:58:42;;;;;;;107.60;47.90;;;10.10;99.90;;;;;;4994207;28;20430;-58
2022/01/01 01:01:08;;;;;;;106.35;46.40;;;10.10;99.90;;;;;;4994186;28;20085;-58
2022/01/01 01:03:34;;;;;;;113.93;45.85;;;10.20;99.90;;;;;;4994059;28;20044;-58
2022/01/01 01:06:00;;;;;;;109.40;43.80;;;10.20;99.90;;;;;;4993622;28;20026;-58
2022/01/01 01:08:27;;;;;;;101.60;43.08;;;10.20;99.90;;;;;;4993757;28;20050;-58
2022/01/01 01:10:55;;;;;;;103.05;43.28;;;10.30;99.90;;;;;;4993713;28;20058;-58
2022/01/01 01:13:21;;;;;;;113.07;43.05;;;10.30;99.90;;;;;;4993920;28;20046;-58
2022/01/01 01:15:47;;;;;;;109.28;45.38;;;10.30;99.90;;;;;;4976725;28;20038;-58
2022/01/01 01:18:13;;;;;;;121.93;44.97;;;10.40;99.90;;;;;;4992936;28;20053;-58
2022/01/01 01:20:40;;;;;;;111.97;44.60;;;10.40;99.90;;;;;;4993957;28;20050;-57
2022/01/01 01:23:06;;;;;;;119.55;45.17;;;10.50;99.90;;;;;;4993613;28;20034;-59
2022/01/01 01:25:40;;;;;;;115.13;49.60;;;10.60;99.90;;;;;;4993646;28;20042;-58
2022/01/01 01:28:10;;;;;;;120.63;50.60;;;10.50;99.90;;;;;;4993773;28;20501;-58
2022/01/01 01:30:37;;;;;;;131.40;51.53;;;10.60;99.90;;;;;;4991922;28;20423;-57
2022/01/01 01:33:04;;;;;;;122.97;52.78;;;10.60;99.90;;;;;;4976798;28;20382;-58
2022/01/01 01:35:30;;;;;;;123.53;55.50;;;10.60;99.90;;;;;;4957141;28;20110;-58
2022/01/01 01:37:56;;;;;;;136.20;60.78;;;10.60;99.90;;;;;;4974349;28;20117;-58
2022/01/01 01:40:22;;;;;;;136.63;61.78;;;10.60;99.90;;;;;;4956713;28;20047;-58
2022/01/01 01:42:48;;;;;;;133.68;61.35;;;10.60;99.90;;;;;;4974148;28;20035;-58
2022/01/01 01:45:18;;;;;;;133.00;64.65;;;10.60;99.90;;;;;;4973775;28;20038;-58
2022/01/01 01:47:45;;;;;;;127.40;61.42;;;10.60;99.90;;;;;;4992291;28;20038;-58
2022/01/01 01:50:12;;;;;;;139.98;58.03;;;10.50;99.90;;;;;;4993269;28;20557;-58
2022/01/01 01:52:41;;;;;;;144.98;65.45;;;10.50;99.90;;;;;;4993010;28;20038;-58
2022/01/01 01:55:09;;;;;;;149.25;72.43;;;10.50;99.90;;;;;;4993271;28;20035;-58
2022/01/01 01:57:40;;;;;;;152.43;71.97;;;10.50;99.90;;;;;;4993167;28;20046;-58
2022/01/01 02:02:53;;;;;;;164.98;79.15;;;10.40;99.90;;;;;;4993272;28;20122;-58
2022/01/01 02:05:19;;;;;;;187.95;86.22;;;10.30;99.90;;;;;;4992757;28;20038;-58
2022/01/01 02:07:47;;;;;;;180.88;85.50;;;10.30;99.90;;;;;;4993009;28;20039;-58
2022/01/01 02:10:13;;;;;;;176.68;87.82;;;10.20;99.90;;;;;;4992757;28;20081;-58
2022/01/01 02:12:41;;;;;;;183.70;90.50;;;10.10;99.90;;;;;;4992938;28;20458;-58
2022/01/01 02:15:13;;;;;;;189.25;91.13;;;10.10;99.90;;;;;;4992705;28;20030;-58
2022/01/01 02:17:39;;;;;;;178.65;92.50;;;10.00;99.90;;;;;;4980548;28;20057;-58
2022/01/01 02:20:18;;;;;;;211.13;98.80;;;10.10;99.90;;;;;;4976017;28;20050;-58
2022/01/01 02:22:49;;;;;;;216.10;101.53;;;9.90;99.90;;;;;;4973152;28;20050;-58
2022/01/01 02:25:17;;;;;;;211.93;101.80;;;9.80;99.90;;;;;;4974255;28;20043;-58
2022/01/01 02:27:44;;;;;;;207.45;101.30;;;9.70;99.90;;;;;;4991266;28;20122;-58
2022/01/01 02:30:12;;;;;;;209.85;103.80;;;9.80;99.90;;;;;;4992326;28;20478;-58
2022/01/01 02:32:38;;;;;;;202.02;100.88;;;9.70;99.90;;;;;;4992604;28;20360;-58
2022/01/01 02:35:05;;;;;;;210.18;102.00;;;9.70;99.90;;;;;;4992166;28;20045;-58
2022/01/01 02:37:31;;;;;;;228.77;103.63;;;9.70;99.90;;;;;;4992236;28;20133;-58
2022/01/01 02:39:58;;;;;;;206.60;103.55;;;9.70;99.90;;;;;;4974891;28;20057;-58
2022/01/01 02:42:25;;;;;;;222.57;106.45;;;9.70;99.90;;;;;;4992258;28;20053;-58
2022/01/01 02:44:53;;;;;;;228.60;106.88;;;9.70;99.90;;;;;;4992209;28;20088;-58
2022/01/01 02:47:19;;;;;;;217.57;103.68;;;9.70;99.90;;;;;;4992306;28;20069;-58
2022/01/01 02:49:44;;;;;;;243.20;107.47;;;9.70;99.90;;;;;;4992373;28;20521;-58
2022/01/01 02:52:10;;;;;;;232.45;108.35;;;9.70;99.90;;;;;;4991810;28;20118;-58
2022/01/01 02:54:36;;;;;;;224.10;107.80;;;9.80;99.90;;;;;;4992245;28;20117;-58
2022/01/01 02:57:01;;;;;;;256.23;111.18;;;9.90;99.90;;;;;;4992168;28;20489;-58
2022/01/01 02:59:27;;;;;;;234.50;109.45;;;10.00;99.90;;;;;;4991835;28;20121;-58
2022/01/01 03:01:53;;;;;;;236.30;112.97;;;10.00;99.90;;;;;;4980844;28;20050;-57
2022/01/01 03:04:19;;;;;;;231.75;109.38;;;10.10;99.90;;;;;;4977784;28;20078;-58
2022/01/01 03:06:52;;;;;;;230.07;105.82;;;10.20;99.90;;;;;;4972097;28;20043;-58
2022/01/01 03:09:18;;;;;;;223.60;102.63;;;10.20;99.90;;;;;;4972278;28;20145;-58
2022/01/01 03:11:44;;;;;;;213.10;98.07;;;10.30;99.90;;;;;;4972012;28;20545;-58
2022/01/01 03:14:10;;;;;;;217.32;98.85;;;10.30;99.90;;;;;;4972320;28;20066;-58
2022/01/01 03:16:36;;;;;;;211.63;100.95;;;10.40;99.90;;;;;;4972538;28;20051;-58
2022/01/01 03:19:02;;;;;;;198.00;96.88;;;10.40;99.90;;;;;;4972506;28;20027;-58
2022/01/01 03:21:28;;;;;;;207.20;99.82;;;10.40;99.90;;;;;;4972477;28;20037;-58
2022/01/01 03:23:53;;;;;;;197.07;95.78;;;10.40;99.90;;;;;;4972486;28;20047;-58
2022/01/01 03:26:19;;;;;;;211.50;101.07;;;10.40;99.90;;;;;;4972180;28;20042;-58
2022/01/01 03:28:45;;;;;;;190.73;95.97;;;10.40;99.90;;;;;;4990388;28;20482;-58
2022/01/01 03:31:10;;;;;;;200.18;97.38;;;10.40;99.90;;;;;;4991589;28;20411;-57
2022/01/01 03:33:36;;;;;;;198.98;96.82;;;10.40;99.90;;;;;;4991508;28;20038;-58
2022/01/01 03:36:02;;;;;;;204.80;95.38;;;10.40;99.90;;;;;;4991043;28;20039;-58
2022/01/01 03:38:29;;;;;;;197.55;96.72;;;10.40;99.90;;;;;;4991624;28;20042;-58
2022/01/01 03:40:55;;;;;;;196.88;94.60;;;10.50;99.90;;;;;;4991327;28;20054;-58
2022/01/01 03:43:21;;;;;;;180.15;91.25;;;10.40;99.90;;;;;;4991256;28;20078;-58
2022/01/01 03:45:46;;;;;;;184.52;88.90;;;10.50;99.90;;;;;;4988376;28;20030;-57
2022/01/01 03:48:12;;;;;;;188.88;92.53;;;10.50;99.90;;;;;;4973856;28;20483;-58
2022/01/01 03:50:38;;;;;;;185.90;88.72;;;10.50;99.90;;;;;;4973183;28;20035;-58
2022/01/01 03:53:03;;;;;;;188.43;88.65;;;10.50;99.90;;;;;;4972256;28;20031;-58
2022/01/01 03:55:29;;;;;;;169.52;84.32;;;10.50;99.90;;;;;;4973177;28;20094;-58
2022/01/01 03:57:55;;;;;;;171.77;85.13;;;10.50;99.90;;;;;;4971803;28;20469;-58
2022/01/01 04:00:20;;;;;;;181.48;83.90;;;10.50;99.90;;;;;;4972078;28;20062;-58
2022/01/01 04:02:46;;;;;;;170.88;84.35;;;10.50;99.90;;;;;;4972080;28;20041;-58
2022/01/01 04:05:12;;;;;;;167.48;85.22;;;10.50;99.90;;;;;;4971259;28;20043;-58
2022/01/01 04:07:38;;;;;;;171.77;85.38;;;10.50;99.90;;;;;;4971946;28;20039;-58
2022/01/01 04:10:04;;;;;;;193.85;86.03;;;10.50;99.90;;;;;;4971725;28;20058;-58
2022/01/01 04:12:30;;;;;;;181.05;88.25;;;10.50;99.90;;;;;;4971602;28;20058;-58
2022/01/01 04:14:57;;;;;;;182.63;85.45;;;10.50;99.90;;;;;;4971936;28;20035;-58
2022/01/01 04:17:23;;;;;;;179.75;85.28;;;10.50;99.90;;;;;;4971945;28;20492;-57
2022/01/01 04:19:49;;;;;;;179.77;83.75;;;10.50;99.90;;;;;;4971972;28;20094;-58
2022/01/01 04:22:16;;;;;;;179.30;85.40;;;10.50;99.90;;;;;;4971984;28;20050;-58
2022/01/01 04:24:41;;;;;;;177.10;84.28;;;10.60;99.90;;;;;;4971987;28;20546;-58
2022/01/01 04:27:08;;;;;;;187.85;85.28;;;10.50;99.90;;;;;;4971700;28;20182;-58
2022/01/01 04:29:34;;;;;;;185.05;82.10;;;10.60;99.90;;;;;;4971851;28;20211;-58
2022/01/01 04:32:01;;;;;;;175.25;79.35;;;10.60;99.90;;;;;;4974528;28;20043;-58
2022/01/01 04:34:27;;;;;;;171.80;79.22;;;10.60;99.90;;;;;;4972285;28;20086;-58
2022/01/01 04:37:13;;;;;;;182.63;79.38;;;10.60;99.90;;;;;;4971509;28;20043;-58
2022/01/01 04:39:39;;;;;;;172.27;76.00;;;10.60;99.90;;;;;;4972381;28;20054;-58
2022/01/01 04:42:05;;;;;;;167.35;73.45;;;10.60;99.90;;;;;;4989965;28;20105;-58
2022/01/01 04:44:30;;;;;;;157.85;68.72;;;10.60;99.90;;;;;;4990962;28;20046;-58
2022/01/01 04:46:56;;;;;;;150.15;62.65;;;10.80;99.90;;;;;;4973280;28;20450;-58
2022/01/01 04:49:22;;;;;;;139.10;56.88;;;10.70;99.90;;;;;;4990965;28;20653;-57
2022/01/01 04:51:49;;;;;;;138.20;54.75;;;10.70;99.90;;;;;;4991024;28;20042;-58
2022/01/01 04:54:16;;;;;;;137.40;55.53;;;10.70;99.90;;;;;;4992065;28;20078;-58
2022/01/01 04:56:47;;;;;;;138.85;53.72;;;10.70;99.90;;;;;;4994501;28;20117;-58
2022/01/01 04:59:14;;;;;;;138.80;53.33;;;10.80;99.90;;;;;;4994552;28;20458;-58
2022/01/01 05:01:40;;;;;;;126.35;49.70;;;10.70;99.90;;;;;;4994076;28;20050;-58
2022/01/01 05:04:09;;;;;;;125.35;49.65;;;10.90;99.90;;;;;;4994283;28;20125;-58
2022/01/01 05:06:35;;;;;;;114.68;47.25;;;10.80;99.90;;;;;;4993746;28;20467;-58
2022/01/01 05:09:01;;;;;;;122.68;46.35;;;10.90;99.90;;;;;;4993803;28;20034;-58
2022/01/01 05:11:27;;;;;;;126.35;44.38;;;10.80;99.90;;;;;;4993621;28;20054;-58
2022/01/01 05:13:53;;;;;;;105.93;42.33;;;10.80;99.90;;;;;;4981391;28;20031;-58
2022/01/01 05:16:20;;;;;;;115.25;40.97;;;10.90;99.90;;;;;;4978141;28;20386;-58
2022/01/01 05:18:46;;;;;;;103.60;37.90;;;11.00;99.90;;;;;;4975938;28;20035;-58
2022/01/01 05:21:12;;;;;;;100.30;37.78;;;10.90;99.90;;;;;;4975529;28;20092;-58
2022/01/01 05:23:38;;;;;;;97.05;33.80;;;10.90;99.90;;;;;;4979900;28;20039;-58
2022/01/01 05:26:04;;;;;;;92.22;34.10;;;10.90;99.90;;;;;;4974498;28;20544;-58
2022/01/01 05:28:30;;;;;;;97.35;34.90;;;10.90;99.90;;;;;;4974497;28;20474;-58
2022/01/01 05:30:56;;;;;;;81.22;32.03;;;11.00;99.90;;;;;;4974439;28;20096;-58
2022/01/01 05:33:22;;;;;;;81.15;29.95;;;11.00;99.90;;;;;;4974316;28;20039;-58
2022/01/01 05:35:48;;;;;;;79.80;31.17;;;11.00;99.90;;;;;;4973845;28;20045;-57
2022/01/01 05:38:14;;;;;;;84.82;30.48;;;11.10;99.90;;;;;;4974313;28;20050;-58
2022/01/01 05:40:39;;;;;;;78.05;29.58;;;11.00;99.90;;;;;;4974095;28;20039;-58
2022/01/01 05:43:12;;;;;;;87.07;29.33;;;11.10;99.90;;;;;;4974307;28;20126;-59
2022/01/01 05:45:38;;;;;;;73.88;28.65;;;11.10;99.90;;;;;;4956623;28;20043;-58
2022/01/01 05:48:04;;;;;;;78.47;29.13;;;11.10;99.90;;;;;;4973935;28;20442;-58
2022/01/01 05:50:30;;;;;;;89.38;30.15;;;11.10;99.90;;;;;;4974113;28;20043;-58
2022/01/01 05:52:55;;;;;;;78.68;27.48;;;11.10;99.90;;;;;;4974061;28;20039;-58
2022/01/01 05:55:21;;;;;;;84.25;29.45;;;11.10;99.90;;;;;;4973721;28;20074;-57
2022/01/01 05:57:46;;;;;;;74.80;27.15;;;11.10;99.90;;;;;;4973758;28;20042;-58
2022/01/01 06:00:13;;;;;;;83.85;28.92;;;11.10;99.90;;;;;;4973880;28;20078;-58
2022/01/01 06:02:42;;;;;;;70.07;27.85;;;11.10;99.90;;;;;;4976203;28;20050;-58
2022/01/01 06:05:09;;;;;;;79.68;28.83;;;11.10;99.90;;;;;;4973158;28;20471;-57
2022/01/01 06:07:34;;;;;;;78.95;29.45;;;11.10;99.90;;;;;;4977240;28;20407;-58
2022/01/01 06:10:01;;;;;;;78.43;29.50;;;11.00;99.90;;;;;;4973525;28;20051;-58
2022/01/01 06:12:27;;;;;;;81.50;28.42;;;11.00;99.90;;;;;;4974752;28;20406;-58
2022/01/01 06:14:52;;;;;;;79.72;28.67;;;11.10;99.90;;;;;;4973618;28;20035;-58
2022/01/01 06:17:18;;;;;;;76.32;29.30;;;11.00;99.90;;;;;;4974743;28;20031;-58
2022/01/01 06:19:44;;;;;;;73.05;28.52;;;11.00;99.90;;;;;;4973329;28;20050;-58
2022/01/01 06:22:09;;;;;;;81.53;31.45;;;11.00;99.90;;;;;;4973110;28;20066;-58
2022/01/01 06:24:35;;;;;;;83.45;30.33;;;11.00;99.90;;;;;;4973206;28;20039;-58
2022/01/01 06:27:01;;;;;;;79.22;30.38;;;11.00;99.90;;;;;;4973366;28;20050;-58
2022/01/01 06:29:26;;;;;;;73.70;30.15;;;11.00;99.90;;;;;;4973377;28;20355;-58
2022/01/01 06:31:52;;;;;;;71.65;29.98;;;11.10;99.90;;;;;;4973368;28;20482;-58
2022/01/01 06:34:18;;;;;;;82.25;32.60;;;11.00;99.90;;;;;;4973340;28;20045;-58
2022/01/01 06:36:43;;;;;;;77.80;32.03;;;11.10;99.90;;;;;;4972679;28;20054;-58
2022/01/01 06:39:09;;;;;;;78.15;29.52;;;11.00;99.90;;;;;;4975823;28;20109;-58
2022/01/01 06:41:34;;;;;;;79.30;31.50;;;11.00;99.90;;;;;;4974280;28;20046;-58
2022/01/01 06:44:00;;;;;;;74.85;30.67;;;11.00;99.90;;;;;;4973211;28;20050;-58
2022/01/01 06:46:26;;;;;;;78.65;31.48;;;11.00;99.90;;;;;;4978295;28;20041;-58
2022/01/01 06:48:52;;;;;;;80.53;31.95;;;11.00;99.90;;;;;;4975207;28;20482;-58
2022/01/01 06:51:17;;;;;;;78.03;30.50;;;11.00;99.90;;;;;;4974207;28;20033;-58
2022/01/01 06:53:43;;;;;;;75.78;30.58;;;11.00;99.90;;;;;;4972935;28;20038;-58
2022/01/01 06:56:09;;;;;;;81.65;30.73;;;11.00;99.90;;;;;;4972898;28;20047;-58
2022/01/01 06:58:36;;;;;;;77.97;31.85;;;11.00;99.90;;;;;;4972438;28;20042;-58
2022/01/01 07:01:02;;;;;;;78.43;32.33;;;11.00;99.90;;;;;;4972799;28;20068;-58
2022/01/01 07:03:28;;;;;;;78.00;32.65;;;11.00;99.90;;;;;;4972468;28;20039;-58
2022/01/01 07:05:53;;;;;;;89.00;35.65;;;11.00;99.90;;;;;;4972387;28;20050;-58
2022/01/01 07:08:19;;;;;;;90.22;34.50;;;11.10;99.90;;;;;;4972528;28;20507;-58
2022/01/01 07:10:45;;;;;;;92.18;34.53;;;11.10;99.90;;;;;;4972299;28;20051;-58
2022/01/01 07:13:15;;;;;;;85.78;34.15;;;11.10;99.90;;;;;;4972676;28;20038;-58
2022/01/01 07:15:40;;;;;;;90.20;36.35;;;11.10;99.90;;;;;;4972001;28;20254;-58
2022/01/01 07:18:06;;;;;;;83.63;35.47;;;11.10;99.90;;;;;;4972015;28;20046;-58
2022/01/01 07:20:32;;;;;;;94.47;37.53;;;11.20;99.90;;;;;;4991752;28;20485;-59
2022/01/01 07:22:58;;;;;;;88.95;36.88;;;11.10;99.90;;;;;;4991688;28;20832;-58
2022/01/01 07:25:23;;;;;;;96.53;37.95;;;11.10;99.90;;;;;;4990292;28;20114;-58
2022/01/01 07:27:49;;;;;;;93.03;37.88;;;11.20;99.90;;;;;;4974633;28;20050;-58
2022/01/01 07:30:15;;;;;;;90.13;38.10;;;11.20;99.90;;;;;;4973847;28;20041;-58
2022/01/01 07:32:42;;;;;;;90.05;37.70;;;11.30;99.90;;;;;;4974894;28;20042;-58
2022/01/01 07:35:09;;;;;;;101.32;37.80;;;11.30;99.90;;;;;;4973889;28;20382;-58
2022/01/01 07:37:35;;;;;;;75.57;35.38;;;11.30;99.90;;;;;;4972800;28;20042;-58
2022/01/01 07:40:01;;;;;;;88.90;37.42;;;11.30;99.90;;;;;;4972282;28;20061;-58
2022/01/01 07:42:26;;;;;;;81.90;36.20;;;11.40;99.90;;;;;;4972241;28;20363;-58
2022/01/01 07:44:52;;;;;;;87.40;35.50;;;11.40;99.90;;;;;;4972237;28;20038;-58
2022/01/01 07:47:18;;;;;;;88.95;35.95;;;11.40;99.90;;;;;;4971764;28;20054;-58
2022/01/01 07:49:43;;;;;;;78.18;34.22;;;11.40;99.90;;;;;;4971973;28;20121;-58
2022/01/01 07:52:09;;;;;;;76.28;34.75;;;11.50;99.90;;;;;;4974974;28;20128;-58
2022/01/01 07:54:35;;;;;;;89.75;36.33;;;11.50;99.90;;;;;;4973950;28;20084;-58
2022/01/01 07:57:01;;;;;;;70.38;34.25;;;11.50;99.90;;;;;;4971809;28;20409;-58
2022/01/01 07:59:26;;;;;;;74.72;33.92;;;11.50;99.90;;;;;;4973848;28;20698;-58
2022/01/01 08:01:52;;;;;;;73.50;35.10;;;11.60;99.90;;;;;;4976939;28;20042;-58
2022/01/01 08:04:17;;;;;;;76.72;35.42;;;11.50;99.90;;;;;;4974658;28;20497;-58
2022/01/01 08:06:43;;;;;;;75.93;34.63;;;11.50;99.90;;;;;;4968659;28;20054;-58
2022/01/01 08:09:09;;;;;;;82.28;35.22;;;11.50;99.90;;;;;;4973620;28;20176;-58
2022/01/01 08:11:34;;;;;;;68.57;33.15;;;11.70;99.90;;;;;;4970794;28;20554;-58
2022/01/01 08:14:00;;;;;;;75.60;33.42;;;11.50;99.90;;;;;;4973047;28;20030;-58
2022/01/01 08:16:26;;;;;;;72.68;32.33;;;11.60;99.90;;;;;;4970252;28;20049;-58
2022/01/01 08:18:52;;;;;;;65.97;33.17;;;11.50;99.90;;;;;;4972799;28;20043;-58
2022/01/01 08:21:17;;;;;;;69.32;32.05;;;11.60;99.90;;;;;;4968358;28;20121;-58
2022/01/01 08:23:43;;;;;;;66.10;31.98;;;11.50;99.90;;;;;;4972196;28;20043;-58
2022/01/01 08:26:09;;;;;;;62.38;31.65;;;11.60;99.90;;;;;;4973654;28;20050;-58
2022/01/01 08:28:34;;;;;;;63.42;30.52;;;11.60;99.90;;;;;;4976991;28;20040;-58
2022/01/01 08:31:00;;;;;;;67.60;31.10;;;11.70;99.90;;;;;;4982383;28;20161;-58
2022/01/01 08:33:26;;;;;;;61.05;29.88;;;11.70;99.90;;;;;;4980859;28;20109;-58
2022/01/01 08:35:51;;;;;;;64.05;30.63;;;11.70;99.90;;;;;;4978028;28;20042;-58
2022/01/01 08:38:17;;;;;;;55.97;27.15;;;11.70;99.90;;;;;;4986342;28;20048;-58
2022/01/01 08:40:43;;;;;;;65.10;29.88;;;11.70;99.90;;;;;;4987928;28;20117;-58
2022/01/01 08:43:09;;;;;;;55.97;28.17;;;11.80;99.90;;;;;;4991663;28;20038;-58
2022/01/01 08:45:38;;;;;;;56.55;25.60;;;11.80;99.90;;;;;;4985563;28;20046;-58
2022/01/01 08:48:06;;;;;;;50.75;25.55;;;11.70;99.90;;;;;;4992344;28;20046;-58
2022/01/01 08:50:32;;;;;;;53.55;25.42;;;11.70;99.90;;;;;;4973971;28;20038;-58
2022/01/01 08:52:58;;;;;;;52.40;24.88;;;11.70;99.90;;;;;;4991949;28;20031;-58
2022/01/01 08:55:24;;;;;;;45.22;23.45;;;11.70;99.90;;;;;;4992492;28;20038;-58
2022/01/01 08:57:50;;;;;;;50.92;22.17;;;11.70;99.90;;;;;;4992978;28;20045;-58
2022/01/01 09:00:16;;;;;;;50.80;23.95;;;11.70;99.90;;;;;;4992858;28;20505;-58
2022/01/01 09:02:42;;;;;;;51.38;22.08;;;11.70;99.90;;;;;;4975408;28;20038;-58
2022/01/01 09:05:09;;;;;;;43.13;21.75;;;11.80;99.90;;;;;;4990728;28;20568;-58
2022/01/01 09:07:35;;;;;;;45.45;20.65;;;11.80;99.90;;;;;;4992360;28;20054;-58
2022/01/01 09:10:03;;;;;;;44.20;19.55;;;11.80;99.90;;;;;;4992902;28;20049;-58
2022/01/01 09:12:29;;;;;;;41.53;18.63;;;11.90;99.90;;;;;;4990734;28;20117;-58
2022/01/01 09:14:55;;;;;;;41.20;18.77;;;11.90;99.90;;;;;;4993152;28;20150;-58
2022/01/01 09:17:21;;;;;;;39.17;18.73;;;12.00;99.90;;;;;;4992685;28;20116;-58
2022/01/01 09:19:49;;;;;;;41.33;18.20;;;11.50;99.90;;;;;;4990019;28;20125;-58
2022/01/01 09:22:14;;;;;;;37.72;17.45;;;12.00;99.90;;;;;;4992841;28;20453;-58
2022/01/01 09:24:40;;;;;;;29.25;16.20;;;12.10;99.90;;;;;;4993120;28;20078;-58
2022/01/01 09:27:06;;;;;;;34.13;15.07;;;12.10;99.90;;;;;;4992398;28;20054;-58
2022/01/01 09:29:32;;;;;;;35.72;15.48;;;12.20;99.90;;;;;;4990468;28;20034;-58
2022/01/01 09:31:58;;;;;;;34.00;15.77;;;12.20;99.90;;;;;;4992588;28;20084;-58
2022/01/01 09:34:23;;;;;;;32.75;14.98;;;12.20;99.90;;;;;;4992549;28;20402;-57
2022/01/01 09:36:50;;;;;;;30.48;14.32;;;12.20;99.90;;;;;;4991798;28;20440;-58
2022/01/01 09:39:16;;;;;;;31.42;15.38;;;12.40;99.90;;;;;;4990222;28;20034;-58
2022/01/01 09:41:43;;;;;;;37.53;16.30;;;12.40;99.90;;;;;;4992556;28;20053;-57
2022/01/01 09:44:16;;;;;;;35.67;17.05;;;12.40;99.90;;;;;;4992209;28;20125;-58
2022/01/01 09:46:44;;;;;;;38.58;17.63;;;12.30;99.90;;;;;;4989132;28;20042;-58
2022/01/01 09:49:12;;;;;;;37.97;16.00;;;12.20;99.90;;;;;;4991122;28;20374;-59
2022/01/01 09:51:39;;;;;;;32.33;15.60;;;12.30;99.90;;;;;;4990507;28;20034;-58
2022/01/01 09:54:05;;;;;;;33.80;14.80;;;12.20;99.90;;;;;;4988513;28;20490;-58
2022/01/01 09:56:31;;;;;;;34.45;16.30;;;12.20;99.90;;;;;;4992092;28;20046;-57
2022/01/01 09:58:57;;;;;;;33.75;15.27;;;12.20;99.90;;;;;;4990132;28;20031;-59
2022/01/01 10:01:22;;;;;;;33.35;16.25;;;12.20;99.90;;;;;;4986397;28;20048;-58
2022/01/01 10:03:52;;;;;;;28.02;14.75;;;12.10;99.90;;;;;;4991049;28;20047;-58
2022/01/01 10:06:20;;;;;;;34.13;14.88;;;12.10;99.90;;;;;;4988422;28;20030;-58
2022/01/01 10:08:49;;;;;;;27.90;13.57;;;12.10;99.90;;;;;;4988116;28;20433;-58
2022/01/01 10:11:18;;;;;;;26.98;12.70;;;12.10;99.90;;;;;;4988538;28;20141;-58
2022/01/01 10:13:45;;;;;;;26.10;13.27;;;12.10;99.90;;;;;;4988940;28;20041;-58
2022/01/01 10:16:11;;;;;;;28.38;12.38;;;12.10;99.90;;;;;;4989269;28;20034;-58
2022/01/01 10:18:46;;;;;;;22.55;11.00;;;12.10;99.90;;;;;;4990132;28;20441;-58
2022/01/01 10:21:19;;;;;;;;;;;12.00;99.90;;;;;;4991233;28;20056;-58
2022/01/01 10:23:46;;;;;;;25.15;11.05;;;12.00;99.90;;;;;;4991030;28;20428;-58
2022/01/01 10:29:28;;;;;;;24.05;10.43;;;12.10;99.90;;;;;;4990495;28;20065;-58
2022/01/01 10:31:58;;;;;;;26.23;9.85;;;12.10;99.90;;;;;;4990440;28;20099;-58
2022/01/01 10:34:32;;;;;;;22.27;9.00;;;12.10;99.90;;;;;;4989737;28;20053;-58
2022/01/01 10:36:59;;;;;;;21.60;8.85;;;12.10;99.90;;;;;;4988822;28;20037;-59
2022/01/01 10:39:25;;;;;;;24.70;10.32;;;12.10;99.90;;;;;;4990711;28;20077;-58
2022/01/01 10:41:54;;;;;;;20.58;8.70;;;12.10;99.90;;;;;;4985543;28;20482;-59
2022/01/01 10:44:27;;;;;;;21.63;9.10;;;12.00;99.90;;;;;;4990473;28;20031;-58
2022/01/01 10:46:53;;;;;;;23.23;8.30;;;12.00;99.90;;;;;;4986864;28;20121;-58
2022/01/01 10:49:33;;;;;;;22.70;8.50;;;12.00;99.90;;;;;;4986802;28;20395;-58
2022/01/01 10:52:20;;;;;;;19.73;7.97;;;12.10;99.90;;;;;;4985930;28;20045;-58
2022/01/01 10:54:58;;;;;;;17.67;7.53;;;12.00;99.90;;;;;;4982340;28;20061;-58
2022/01/01 10:57:35;;;;;;;17.50;7.63;;;12.10;99.90;;;;;;4978261;28;20035;-58
2022/01/01 11:00:12;;;;;;;18.48;8.30;;;12.10;99.90;;;;;;4979845;28;20053;-59
2022/01/01 11:02:49;;;;;;;23.08;7.80;;;12.10;99.90;;;;;;4988074;28;20137;-58
2022/01/01 11:05:16;;;;;;;21.48;8.48;;;12.10;99.90;;;;;;4989423;28;20038;-58
2022/01/01 11:07:50;;;;;;;16.17;7.20;;;12.10;99.90;;;;;;4989758;28;20049;-57
2022/01/01 11:10:18;;;;;;;22.33;7.70;;;12.10;99.90;;;;;;4988248;28;20101;-58
2022/01/01 11:12:44;;;;;;;23.77;7.85;;;12.10;99.90;;;;;;4990136;28;20046;-58
2022/01/01 11:15:10;;;;;;;16.85;7.63;;;12.30;99.90;;;;;;4990268;28;20033;-59
2022/01/01 11:17:37;;;;;;;18.17;7.20;;;12.10;99.90;;;;;;4990966;28;20046;-58
2022/01/01 11:20:05;;;;;;;18.45;7.97;;;12.20;99.90;;;;;;4967752;28;20038;-58
2022/01/01 11:22:31;;;;;;;21.17;7.20;;;12.20;99.90;;;;;;4985711;28;20585;-58
2022/01/01 11:24:57;;;;;;;21.25;7.68;;;12.30;99.90;;;;;;4990039;28;20049;-59
2022/01/01 11:27:25;;;;;;;16.08;7.18;;;12.40;99.90;;;;;;4989253;28;20038;-58
2022/01/01 11:29:53;;;;;;;18.15;7.43;;;12.30;99.90;;;;;;4990182;28;20049;-57
2022/01/01 11:32:22;;;;;;;18.77;7.35;;;12.40;99.90;;;;;;4991234;28;20371;-58
2022/01/01 11:34:53;;;;;;;18.83;7.65;;;12.40;99.90;;;;;;4990589;28;20027;-58
2022/01/01 11:37:22;;;;;;;21.55;7.78;;;12.40;99.90;;;;;;4988465;28;20042;-58
2022/01/01 11:39:53;;;;;;;21.08;7.88;;;12.50;99.90;;;;;;4978129;28;20042;-58
2022/01/01 11:42:19;;;;;;;22.08;8.23;;;12.40;99.90;;;;;;4977620;28;20484;-58
2022/01/01 11:44:54;;;;;;;18.70;8.32;;;12.50;99.90;;;;;;4974000;28;20045;-58
2022/01/01 11:47:22;;;;;;;16.20;8.00;;;12.60;99.90;;;;;;4976199;28;20039;-58
2022/01/01 11:49:49;;;;;;;16.65;8.00;;;12.60;99.90;;;;;;4980897;28;20045;-58
2022/01/01 11:52:44;;;;;;;22.30;7.97;;;12.60;99.90;;;;;;4985801;28;20039;-59
2022/01/01 11:55:16;;;;;;;16.95;7.75;;;12.50;99.90;;;;;;4990392;28;20046;-58
2022/01/01 11:57:59;;;;;;;14.48;7.30;;;12.60;99.90;;;;;;4989289;28;20050;-58
2022/01/01 12:00:25;;;;;;;16.38;8.00;;;12.50;99.90;;;;;;4989767;28;20057;-58
2022/01/01 12:03:09;;;;;;;18.10;8.07;;;12.50;99.90;;;;;;4979140;28;20045;-58
2022/01/01 12:05:35;;;;;;;16.75;7.63;;;12.50;99.90;;;;;;4967227;28;20057;-58
2022/01/01 12:08:01;;;;;;;16.10;6.82;;;12.50;99.90;;;;;;4982071;28;20057;-57
2022/01/01 12:10:33;;;;;;;15.57;7.38;;;12.50;99.90;;;;;;4979409;28;20476;-58
2022/01/01 12:13:07;;;;;;;16.80;6.82;;;12.60;99.90;;;;;;4978471;28;20039;-59
2022/01/01 12:15:39;;;;;;;17.80;7.75;;;12.50;99.90;;;;;;4994935;28;20050;-58
2022/01/01 12:18:10;;;;;;;16.20;7.15;;;12.60;99.90;;;;;;4995737;28;20045;-58
2022/01/01 12:20:38;;;;;;;16.40;8.00;;;12.60;99.90;;;;;;4995603;28;20046;-58
2022/01/01 12:23:15;;;;;;;33.58;17.42;;;12.60;99.90;;;;;;4995261;28;20049;-58
2022/01/01 12:25:42;;;;;;;28.17;14.70;;;12.60;99.90;;;;;;4995635;28;20038;-58
2022/01/01 12:28:21;;;;;;;32.58;16.15;;;12.60;99.90;;;;;;4995041;28;20042;-56